Time;durP1;ratioP1;P1;durP2;ratioP2;P2;SDS_P1;SDS_P2;PMS_P1;PMS_P2;Temp;Humidity;BMP_temperature;BMP_pressure;BME280_temperature;BME280_humidity;BME280_pressure;Samples;Min_cycle;Max_cycle;Signal;HPM_P1;HPM_P2
2022/07/21 00:02:12;;;;;;;16.13;12.88;;;22.20;99.90;;;;;;5110282;28;20261;-52
2022/07/21 00:04:40;;;;;;;17.90;14.43;;;22.20;99.90;;;;;;5110510;28;20212;-52
2022/07/21 00:07:09;;;;;;;15.52;13.95;;;22.20;99.90;;;;;;5110123;28;20290;-52
2022/07/21 00:09:38;;;;;;;17.17;15.48;;;22.30;99.90;;;;;;5110365;28;20709;-51
2022/07/21 00:12:07;;;;;;;17.40;15.68;;;22.30;99.90;;;;;;5111336;28;20260;-51
2022/07/21 00:14:35;;;;;;;16.25;14.50;;;22.20;99.90;;;;;;5096812;28;20211;-51
2022/07/21 00:17:03;;;;;;;14.68;13.23;;;22.10;99.90;;;;;;5110065;28;20231;-51
2022/07/21 00:19:31;;;;;;;15.32;12.95;;;22.00;99.90;;;;;;5110480;28;20223;-51
2022/07/21 00:21:59;;;;;;;13.57;12.13;;;21.80;99.90;;;;;;5109773;28;20211;-52
2022/07/21 00:24:27;;;;;;;16.13;13.88;;;21.60;99.90;;;;;;5110911;28;20207;-52
2022/07/21 00:26:57;;;;;;;14.25;12.75;;;21.50;99.90;;;;;;5109921;28;20280;-52
2022/07/21 00:29:25;;;;;;;13.23;11.80;;;21.40;99.90;;;;;;5109614;28;20220;-52
2022/07/21 00:31:53;;;;;;;14.20;11.88;;;21.40;99.90;;;;;;5110143;28;20249;-51
2022/07/21 00:34:21;;;;;;;13.20;11.90;;;21.50;99.90;;;;;;5110339;28;20248;-52
2022/07/21 00:36:49;;;;;;;14.88;12.10;;;21.60;99.90;;;;;;5109676;28;20223;-52
2022/07/21 00:39:17;;;;;;;12.68;11.48;;;21.70;99.90;;;;;;5110256;28;20204;-51
2022/07/21 00:41:45;;;;;;;15.85;12.10;;;21.70;99.90;;;;;;5108724;28;20623;-51
2022/07/21 00:44:22;;;;;;;12.80;11.50;;;21.80;99.90;;;;;;5109501;28;20204;-51
2022/07/21 00:46:50;;;;;;;15.18;12.57;;;21.80;99.90;;;;;;5109420;28;20223;-51
2022/07/21 00:49:19;;;;;;;18.45;15.38;;;21.80;99.90;;;;;;5110469;28;20235;-52
2022/07/21 00:51:47;;;;;;;17.73;14.20;;;21.80;99.90;;;;;;5109633;28;20204;-51
2022/07/21 00:54:17;;;;;;;16.63;14.88;;;21.80;99.90;;;;;;5110109;28;20232;-51
2022/07/21 00:56:46;;;;;;;15.82;13.98;;;21.80;99.90;;;;;;5109238;28;20582;-52
2022/07/21 00:59:17;;;;;;;17.20;14.40;;;21.80;99.90;;;;;;5110086;28;20264;-51
2022/07/21 01:01:46;;;;;;;17.05;15.30;;;21.80;99.90;;;;;;5109750;28;20204;-50
2022/07/21 01:04:15;;;;;;;21.67;16.40;;;21.80;99.90;;;;;;5109507;28;20260;-51
2022/07/21 01:06:43;;;;;;;16.70;15.00;;;21.90;99.90;;;;;;5109038;28;20658;-50
2022/07/21 01:09:11;;;;;;;17.15;15.48;;;21.90;99.90;;;;;;5109862;28;20259;-51
2022/07/21 01:11:40;;;;;;;16.67;14.75;;;21.80;99.90;;;;;;5109734;28;20211;-52
2022/07/21 01:14:08;;;;;;;18.10;15.13;;;21.80;99.90;;;;;;5109981;28;20208;-51
2022/07/21 01:16:36;;;;;;;16.88;15.02;;;21.80;99.90;;;;;;5108993;28;20277;-51
2022/07/21 01:19:07;;;;;;;15.73;14.00;;;21.70;99.90;;;;;;5109483;28;20708;-51
2022/07/21 01:21:38;;;;;;;17.00;14.52;;;21.70;99.90;;;;;;5108807;28;20204;-52
2022/07/21 01:24:07;;;;;;;17.85;15.32;;;21.70;99.90;;;;;;5109783;28;20256;-51
2022/07/21 01:26:41;;;;;;;16.88;15.10;;;21.70;99.90;;;;;;5109580;28;20223;-51
2022/07/21 01:29:11;;;;;;;17.48;15.77;;;21.70;99.90;;;;;;5109326;28;20554;-52
2022/07/21 01:31:41;;;;;;;19.27;17.10;;;21.70;99.90;;;;;;5109003;28;20290;-51
2022/07/21 01:34:10;;;;;;;17.58;15.77;;;21.70;99.90;;;;;;5109100;28;20214;-52
2022/07/21 01:36:40;;;;;;;17.90;15.13;;;21.60;99.90;;;;;;5108963;28;20253;-52
2022/07/21 01:41:55;;;;;;;17.00;15.27;;;21.60;99.90;;;;;;5102339;28;20648;-51
2022/07/21 01:44:23;;;;;;;18.77;15.80;;;21.60;99.90;;;;;;5111983;28;20253;-51
2022/07/21 01:46:53;;;;;;;17.63;15.65;;;21.60;99.90;;;;;;5108844;28;20235;-51
2022/07/21 01:49:21;;;;;;;16.45;14.55;;;21.60;99.90;;;;;;5109567;28;20200;-51
2022/07/21 01:51:51;;;;;;;20.80;16.55;;;21.60;99.90;;;;;;5109022;28;20212;-52
2022/07/21 01:54:19;;;;;;;16.90;14.18;;;21.60;99.90;;;;;;5113421;28;20887;-51
2022/07/21 01:56:51;;;;;;;17.27;15.15;;;21.50;99.90;;;;;;5112865;28;20223;-52
2022/07/21 01:59:20;;;;;;;16.00;14.18;;;21.50;99.90;;;;;;5112590;28;20272;-52
2022/07/21 02:01:48;;;;;;;16.85;14.48;;;21.50;99.90;;;;;;5112680;28;20680;-52
2022/07/21 02:04:16;;;;;;;18.10;16.15;;;21.50;99.90;;;;;;5112423;28;20210;-51
2022/07/21 02:06:45;;;;;;;18.08;15.25;;;21.50;99.90;;;;;;5112461;28;20255;-50
2022/07/21 02:09:14;;;;;;;17.05;15.07;;;21.50;99.90;;;;;;5112348;28;20252;-52
2022/07/21 02:11:42;;;;;;;21.45;15.02;;;21.50;99.90;;;;;;5112155;28;20660;-51
2022/07/21 02:14:10;;;;;;;16.85;14.80;;;21.50;99.90;;;;;;5112825;28;20207;-51
2022/07/21 02:16:38;;;;;;;17.67;15.15;;;21.40;99.90;;;;;;5112137;28;20231;-52
2022/07/21 02:19:09;;;;;;;16.85;14.98;;;21.40;99.90;;;;;;5112300;28;20227;-51
2022/07/21 02:21:37;;;;;;;16.67;14.98;;;21.30;99.90;;;;;;5111809;28;20252;-52
2022/07/21 02:24:06;;;;;;;15.82;14.07;;;21.40;99.90;;;;;;5111747;28;20211;-51
2022/07/21 02:26:36;;;;;;;15.98;14.02;;;21.40;99.90;;;;;;5112014;28;20219;-51
2022/07/21 02:29:04;;;;;;;15.80;14.32;;;21.30;99.90;;;;;;5112397;28;20204;-51
2022/07/21 02:31:34;;;;;;;15.32;13.73;;;21.20;99.90;;;;;;5111801;28;20750;-52
2022/07/21 02:34:02;;;;;;;16.38;14.73;;;21.20;99.90;;;;;;5112638;28;20211;-51
2022/07/21 02:36:30;;;;;;;15.07;13.48;;;21.20;99.90;;;;;;5112226;28;20272;-51
2022/07/21 02:38:58;;;;;;;17.02;15.30;;;21.10;99.90;;;;;;5111683;28;20219;-51
2022/07/21 02:41:26;;;;;;;15.98;12.90;;;21.10;99.90;;;;;;5112103;28;20200;-51
2022/07/21 02:43:55;;;;;;;14.88;13.48;;;21.10;99.90;;;;;;5112332;28;20584;-52
2022/07/21 02:46:23;;;;;;;15.75;14.25;;;21.10;99.90;;;;;;5111502;28;20702;-52
2022/07/21 02:48:52;;;;;;;15.75;13.95;;;21.10;99.90;;;;;;5112250;28;20279;-51
2022/07/21 02:51:20;;;;;;;19.73;14.55;;;21.20;99.90;;;;;;5111547;28;20199;-50
2022/07/21 02:53:48;;;;;;;22.42;14.20;;;21.20;99.90;;;;;;5111695;28;20259;-51
2022/07/21 02:56:17;;;;;;;20.73;14.90;;;21.30;99.90;;;;;;5111924;28;20266;-51
2022/07/21 02:58:45;;;;;;;18.88;14.65;;;21.30;99.90;;;;;;5111438;28;20773;-52
2022/07/21 03:01:15;;;;;;;17.85;15.07;;;21.30;99.90;;;;;;5111517;28;20256;-51
2022/07/21 03:03:43;;;;;;;17.38;15.23;;;21.30;99.90;;;;;;5111194;28;20239;-51
2022/07/21 03:06:11;;;;;;;17.60;14.98;;;21.30;99.90;;;;;;5111931;28;20235;-51
2022/07/21 03:08:39;;;;;;;21.77;15.57;;;21.30;99.90;;;;;;5111314;28;20271;-51
2022/07/21 03:11:08;;;;;;;17.83;15.82;;;21.40;99.90;;;;;;5111405;28;20208;-51
2022/07/21 03:13:37;;;;;;;20.65;16.10;;;21.40;99.90;;;;;;5111478;28;20199;-51
2022/07/21 03:16:05;;;;;;;18.25;15.30;;;21.40;99.90;;;;;;5110784;28;20224;-52
2022/07/21 03:18:35;;;;;;;17.90;16.10;;;21.40;99.90;;;;;;5111450;28;20259;-51
2022/07/21 03:21:03;;;;;;;18.88;16.10;;;21.40;99.90;;;;;;5110865;28;20215;-51
2022/07/21 03:23:31;;;;;;;20.45;18.30;;;21.40;99.90;;;;;;5111017;28;20634;-52
2022/07/21 03:25:59;;;;;;;19.83;17.83;;;21.40;99.90;;;;;;5111161;28;20224;-52
2022/07/21 03:28:27;;;;;;;24.50;19.45;;;21.40;99.90;;;;;;5111475;28;20207;-51
2022/07/21 03:30:56;;;;;;;21.95;19.55;;;21.30;99.90;;;;;;5109712;28;20335;-51
2022/07/21 03:33:24;;;;;;;27.35;21.15;;;21.30;99.90;;;;;;5110271;28;20199;-52
2022/07/21 03:35:53;;;;;;;29.35;22.00;;;21.20;99.90;;;;;;5109928;28;20323;-51
2022/07/21 03:38:21;;;;;;;28.60;20.48;;;21.20;99.90;;;;;;5110001;28;20223;-51
2022/07/21 03:40:49;;;;;;;15.88;14.30;;;21.30;99.90;;;;;;5110852;28;20233;-52
2022/07/21 03:43:17;;;;;;;10.80;9.70;;;21.20;99.90;;;;;;5110850;28;20203;-50
2022/07/21 03:45:45;;;;;;;10.40;9.15;;;21.20;99.90;;;;;;5110536;28;20277;-51
2022/07/21 03:48:13;;;;;;;11.30;8.48;;;21.20;99.90;;;;;;5110905;28;20628;-51
2022/07/21 03:50:43;;;;;;;8.40;7.57;;;21.00;99.90;;;;;;5110521;28;20200;-51
2022/07/21 03:53:12;;;;;;;7.00;6.35;;;21.00;99.90;;;;;;5110492;28;20211;-52
2022/07/21 03:55:40;;;;;;;6.82;6.18;;;20.90;99.90;;;;;;5110438;28;20227;-50
2022/07/21 03:58:08;;;;;;;5.95;5.43;;;20.80;99.90;;;;;;5110359;28;20661;-51
2022/07/21 04:00:38;;;;;;;6.30;5.55;;;20.70;99.90;;;;;;5110164;28;20273;-52
2022/07/21 04:03:07;;;;;;;6.68;6.07;;;20.70;99.90;;;;;;5099830;28;20261;-52
2022/07/21 04:05:37;;;;;;;6.80;6.13;;;20.60;99.90;;;;;;5110108;28;20292;-51
2022/07/21 04:08:06;;;;;;;6.78;6.15;;;20.50;99.90;;;;;;5110110;28;20208;-51
2022/07/21 04:10:37;;;;;;;6.30;5.70;;;20.50;99.90;;;;;;5110529;28;20211;-51
2022/07/21 04:13:07;;;;;;;7.13;5.40;;;20.50;99.90;;;;;;5111151;28;20203;-52
2022/07/21 04:15:35;;;;;;;6.85;5.95;;;20.50;99.90;;;;;;5110005;28;20232;-51
2022/07/21 04:18:04;;;;;;;5.80;5.28;;;20.50;99.90;;;;;;5110778;28;20250;-51
2022/07/21 04:20:33;;;;;;;8.15;5.75;;;20.50;99.90;;;;;;5110756;28;20215;-51
2022/07/21 04:23:01;;;;;;;6.60;5.93;;;20.50;99.90;;;;;;5110029;28;20280;-51
2022/07/21 04:25:30;;;;;;;6.70;5.97;;;20.40;99.90;;;;;;5110538;28;20227;-51
2022/07/21 04:27:59;;;;;;;7.00;6.30;;;20.40;99.90;;;;;;5110830;28;20257;-52
2022/07/21 04:30:27;;;;;;;7.88;6.20;;;20.40;99.90;;;;;;5110918;28;20203;-51
2022/07/21 04:32:55;;;;;;;6.85;6.13;;;20.50;99.90;;;;;;5109888;28;20203;-51
2022/07/21 04:35:24;;;;;;;7.38;5.97;;;20.50;99.90;;;;;;5110198;28;20792;-51
2022/07/21 04:37:52;;;;;;;7.57;6.50;;;20.50;99.90;;;;;;5109619;28;20260;-52
2022/07/21 04:40:20;;;;;;;7.43;6.05;;;20.50;99.90;;;;;;5110451;28;20288;-50
2022/07/21 04:42:48;;;;;;;6.60;6.00;;;20.50;99.90;;;;;;5105320;28;20208;-52
2022/07/21 04:45:18;;;;;;;7.53;6.57;;;21.10;99.90;;;;;;5097610;28;20227;-51
2022/07/21 04:47:48;;;;;;;7.20;6.50;;;21.70;99.90;;;;;;5109825;28;20268;-51
2022/07/21 04:50:17;;;;;;;7.18;6.55;;;22.20;99.90;;;;;;5110584;28;20203;-51
2022/07/21 04:52:45;;;;;;;6.90;6.20;;;22.80;99.90;;;;;;5110136;28;20201;-50
2022/07/21 04:55:14;;;;;;;6.25;5.68;;;23.00;99.90;;;;;;5110089;28;20223;-52
2022/07/21 04:57:45;;;;;;;5.90;5.40;;;23.70;99.90;;;;;;5104399;28;20208;-51
2022/07/21 05:00:16;;;;;;;7.68;5.80;;;24.20;99.90;;;;;;5098982;28;20220;-50
2022/07/21 05:02:46;;;;;;;6.22;5.72;;;24.20;99.90;;;;;;5106805;28;20723;-51
2022/07/21 05:05:14;;;;;;;6.20;5.60;;;24.00;99.90;;;;;;5110080;28;20272;-51
2022/07/21 05:07:43;;;;;;;6.15;5.40;;;23.50;99.90;;;;;;5108869;28;20207;-51
2022/07/21 05:10:13;;;;;;;6.57;5.53;;;23.40;99.90;;;;;;5101833;28;20204;-51
2022/07/21 05:12:41;;;;;;;7.68;6.20;;;23.00;99.90;;;;;;5108593;28;20204;-52
2022/07/21 05:15:12;;;;;;;7.15;6.45;;;22.90;99.90;;;;;;5111712;28;20288;-52
2022/07/21 05:17:40;;;;;;;6.82;5.68;;;23.90;99.90;;;;;;5097171;28;20252;-50
2022/07/21 05:20:11;;;;;;;7.03;5.78;;;24.80;99.90;;;;;;5093163;28;20357;-50
2022/07/21 05:22:39;;;;;;;8.25;6.30;;;25.40;99.90;;;;;;5104917;28;20207;-52
2022/07/21 05:25:09;;;;;;;6.25;5.30;;;25.80;99.90;;;;;;5103018;28;20282;-51
2022/07/21 05:27:37;;;;;;;7.95;6.00;;;25.90;99.90;;;;;;5099833;28;20947;-51
2022/07/21 05:30:06;;;;;;;6.63;6.03;;;25.30;99.90;;;;;;5112886;28;20199;-50
2022/07/21 05:32:35;;;;;;;7.72;6.70;;;24.60;99.90;;;;;;5107794;28;20261;-50
2022/07/21 05:35:08;;;;;;;10.27;6.25;;;24.20;99.90;;;;;;5112298;28;20238;-50
2022/07/21 05:37:38;;;;;;;7.05;6.20;;;24.30;99.90;;;;;;5110307;28;20302;-51
2022/07/21 05:40:08;;;;;;;8.70;6.72;;;24.10;99.90;;;;;;5108116;28;20216;-52
2022/07/21 05:42:37;;;;;;;7.50;6.80;;;24.70;99.90;;;;;;5109874;28;20204;-51
2022/07/21 05:45:06;;;;;;;8.73;7.53;;;24.20;99.90;;;;;;5094479;28;20231;-51
2022/07/21 05:47:34;;;;;;;8.15;7.35;;;24.40;99.90;;;;;;5095046;28;20730;-51
2022/07/21 05:50:02;;;;;;;7.90;7.20;;;24.70;99.90;;;;;;5106517;28;20265;-52
2022/07/21 05:52:30;;;;;;;9.10;8.20;;;24.20;99.90;;;;;;5108958;28;20692;-52
2022/07/21 05:55:00;;;;;;;8.38;7.07;;;23.70;99.90;;;;;;5097306;28;20286;-50
2022/07/21 05:57:28;;;;;;;8.70;6.97;;;23.30;99.90;;;;;;5111933;28;20266;-51
2022/07/21 05:59:57;;;;;;;7.75;7.05;;;23.10;99.90;;;;;;5112858;28;20289;-51
2022/07/21 06:02:25;;;;;;;7.35;6.10;;;22.90;99.90;;;;;;5101274;28;20233;-51
2022/07/21 06:04:53;;;;;;;7.93;6.75;;;22.80;99.90;;;;;;5112240;28;20199;-50
2022/07/21 06:07:22;;;;;;;7.15;6.25;;;23.70;99.90;;;;;;5112055;28;20208;-51
2022/07/21 06:09:50;;;;;;;6.50;5.75;;;24.90;99.90;;;;;;5112625;28;20211;-51
2022/07/21 06:12:19;;;;;;;6.07;5.47;;;25.80;99.90;;;;;;5112875;28;20268;-52
2022/07/21 06:14:49;;;;;;;7.03;5.88;;;26.60;99.90;;;;;;5111725;28;20200;-51
2022/07/21 06:17:17;;;;;;;6.20;5.60;;;27.00;99.90;;;;;;5112386;28;20230;-52
2022/07/21 06:19:45;;;;;;;7.13;6.53;;;27.30;99.90;;;;;;5111277;28;20238;-52
2022/07/21 06:22:13;;;;;;;7.45;6.25;;;27.70;99.90;;;;;;5112119;28;20200;-52
2022/07/21 06:24:41;;;;;;;7.28;6.50;;;28.10;99.90;;;;;;5112388;28;20203;-52
2022/07/21 06:27:09;;;;;;;7.03;6.38;;;27.60;99.90;;;;;;5112378;28;20203;-51
2022/07/21 06:29:39;;;;;;;6.43;5.82;;;27.20;99.90;;;;;;5112422;28;20204;-50
2022/07/21 06:32:07;;;;;;;6.75;6.05;;;27.80;99.90;;;;;;5101660;28;20644;-51
2022/07/21 06:34:35;;;;;;;6.10;5.50;;;27.10;99.90;;;;;;5112087;28;20252;-52
2022/07/21 06:37:03;;;;;;;9.32;5.93;;;27.00;99.90;;;;;;5111959;28;20211;-51
2022/07/21 06:39:31;;;;;;;7.15;5.63;;;26.60;99.90;;;;;;5109848;28;20204;-52
2022/07/21 06:41:59;;;;;;;6.65;5.93;;;26.00;99.90;;;;;;5110204;28;20248;-51
2022/07/21 06:44:27;;;;;;;6.20;5.70;;;25.50;99.90;;;;;;5109112;28;20676;-52
2022/07/21 06:46:57;;;;;;;8.35;6.82;;;25.10;99.90;;;;;;5110220;28;20268;-52
2022/07/21 06:49:25;;;;;;;6.50;5.88;;;24.90;99.90;;;;;;5102042;28;20217;-52
2022/07/21 06:51:53;;;;;;;6.75;6.07;;;24.80;99.90;;;;;;5097812;28;20217;-52
2022/07/21 06:54:21;;;;;;;7.63;5.90;;;24.70;99.90;;;;;;5096954;28;20695;-52
2022/07/21 06:56:49;;;;;;;6.75;5.30;;;24.60;99.90;;;;;;5093180;28;20224;-52
2022/07/21 06:59:17;;;;;;;6.63;5.97;;;24.60;99.90;;;;;;5094624;28;20212;-52
2022/07/21 07:01:46;;;;;;;7.07;5.82;;;24.50;99.90;;;;;;5092561;28;20704;-52
2022/07/21 07:04:15;;;;;;;6.40;5.80;;;24.40;99.90;;;;;;5091550;28;20226;-50
2022/07/21 07:06:44;;;;;;;6.18;5.57;;;24.40;99.90;;;;;;5106689;28;20224;-51
2022/07/21 07:09:12;;;;;;;6.38;5.80;;;24.30;99.90;;;;;;5098256;28;20208;-51
2022/07/21 07:11:40;;;;;;;6.25;5.65;;;24.30;99.90;;;;;;5109051;28;20211;-51
2022/07/21 07:14:28;;;;;;;6.40;5.80;;;24.40;99.90;;;;;;5109465;28;20272;-51
2022/07/21 07:16:57;;;;;;;5.90;5.40;;;24.50;99.90;;;;;;5110198;28;20219;-50
2022/07/21 07:19:27;;;;;;;6.20;5.60;;;24.70;99.90;;;;;;5109205;28;20674;-52
2022/07/21 07:21:55;;;;;;;6.95;5.82;;;24.60;99.90;;;;;;5109560;28;20223;-52
2022/07/21 07:24:23;;;;;;;6.30;5.70;;;24.40;99.90;;;;;;5109709;28;20230;-50
2022/07/21 07:26:51;;;;;;;6.57;5.88;;;24.20;99.90;;;;;;5109448;28;20231;-51
2022/07/21 07:29:19;;;;;;;6.40;5.80;;;24.10;99.90;;;;;;5106933;28;20199;-51
2022/07/21 07:31:47;;;;;;;6.75;6.03;;;24.00;99.90;;;;;;5107950;28;20199;-51
2022/07/21 07:34:15;;;;;;;6.95;6.03;;;23.90;99.90;;;;;;5108492;28;20660;-51
2022/07/21 07:36:45;;;;;;;6.10;5.53;;;23.70;99.90;;;;;;5109139;28;20223;-51
2022/07/21 07:39:15;;;;;;;6.80;6.10;;;23.70;99.90;;;;;;5100837;28;20246;-49
2022/07/21 07:41:44;;;;;;;6.70;6.10;;;23.80;99.90;;;;;;5109298;28;20226;-52
2022/07/21 07:44:13;;;;;;;7.85;6.60;;;24.10;99.90;;;;;;5109045;28;20237;-51
2022/07/21 07:46:41;;;;;;;7.13;6.43;;;24.10;99.90;;;;;;5109375;28;20227;-51
2022/07/21 07:49:09;;;;;;;8.75;6.60;;;24.20;99.90;;;;;;5093228;28;20630;-51
2022/07/21 07:51:48;;;;;;;6.57;5.97;;;24.40;99.90;;;;;;5088252;28;20226;-51
2022/07/21 07:54:16;;;;;;;7.15;5.93;;;24.50;99.90;;;;;;5091575;28;20203;-52
2022/07/21 07:56:44;;;;;;;7.93;5.82;;;24.60;99.90;;;;;;5098557;28;20968;-52
2022/07/21 07:59:12;;;;;;;6.80;6.10;;;25.00;99.90;;;;;;5092592;28;20887;-52
2022/07/21 08:01:41;;;;;;;6.97;6.30;;;25.00;99.90;;;;;;5092448;28;20208;-51
2022/07/21 08:04:10;;;;;;;6.88;6.18;;;24.80;99.90;;;;;;5091575;28;20212;-51
2022/07/21 08:06:38;;;;;;;7.25;6.55;;;24.70;99.90;;;;;;5098299;28;20692;-52
2022/07/21 08:09:07;;;;;;;6.88;6.13;;;24.50;99.90;;;;;;5105193;28;20672;-52
2022/07/21 08:11:36;;;;;;;7.38;6.75;;;24.40;99.90;;;;;;5109546;28;20200;-51
2022/07/21 08:14:04;;;;;;;7.05;6.35;;;24.30;99.90;;;;;;5097553;27;20208;-50
2022/07/21 08:16:32;;;;;;;7.30;6.60;;;24.10;99.90;;;;;;5091058;28;20234;-51
2022/07/21 08:19:00;;;;;;;7.70;6.82;;;24.10;99.90;;;;;;5103117;27;20257;-51
2022/07/21 08:21:30;;;;;;;7.07;6.45;;;24.30;99.90;;;;;;5109619;28;20268;-52
2022/07/21 08:24:20;;;;;;;8.23;6.53;;;24.30;99.90;;;;;;5107508;28;20645;-51
2022/07/21 08:26:48;;;;;;;8.07;6.07;;;24.40;99.90;;;;;;5106925;28;20265;-51
2022/07/21 08:29:16;;;;;;;7.03;6.43;;;24.80;99.90;;;;;;5108415;28;20211;-51
2022/07/21 08:31:44;;;;;;;7.30;6.55;;;25.30;99.90;;;;;;5107209;28;20257;-51
2022/07/21 08:34:12;;;;;;;6.72;6.13;;;25.70;99.90;;;;;;5107678;28;20204;-51
2022/07/21 08:36:40;;;;;;;7.55;6.85;;;25.40;99.90;;;;;;5107589;28;20687;-51
2022/07/21 08:39:09;;;;;;;9.10;6.85;;;25.60;99.90;;;;;;5108162;28;20276;-50
2022/07/21 08:41:40;;;;;;;7.18;6.28;;;26.10;99.90;;;;;;5109707;28;20346;-51
2022/07/21 08:44:10;;;;;;;7.32;6.47;;;26.10;99.90;;;;;;5109269;28;20253;-50
2022/07/21 08:46:41;;;;;;;7.32;6.63;;;26.00;99.90;;;;;;5109262;28;20227;-52
2022/07/21 08:49:10;;;;;;;8.20;7.40;;;25.90;99.90;;;;;;5109824;28;20207;-52
2022/07/21 08:51:38;;;;;;;7.13;6.38;;;25.80;99.90;;;;;;5109915;28;20214;-50
2022/07/21 08:54:07;;;;;;;7.40;6.28;;;25.60;99.90;;;;;;5109583;28;20264;-51
2022/07/21 08:56:35;;;;;;;8.05;6.75;;;25.30;99.90;;;;;;5109279;28;20228;-51
2022/07/21 08:59:05;;;;;;;7.15;6.45;;;25.10;99.90;;;;;;5109291;28;20264;-52
2022/07/21 09:01:33;;;;;;;8.30;6.95;;;25.00;99.90;;;;;;5109987;28;20718;-51
2022/07/21 09:04:20;;;;;;;8.07;7.22;;;24.60;99.90;;;;;;5112916;28;20230;-51
2022/07/21 09:06:54;;;;;;;7.10;6.40;;;24.70;99.90;;;;;;5112771;28;20226;-50
2022/07/21 09:09:23;;;;;;;8.43;6.55;;;24.60;99.90;;;;;;5112860;28;20260;-52
2022/07/21 09:11:51;;;;;;;7.40;6.70;;;24.50;99.90;;;;;;5113656;28;20199;-51
2022/07/21 09:14:23;;;;;;;7.13;6.53;;;24.50;99.90;;;;;;5113231;28;20252;-52
2022/07/21 09:16:53;;;;;;;7.70;6.47;;;24.40;99.90;;;;;;5112379;28;20637;-52
2022/07/21 09:19:23;;;;;;;7.57;6.80;;;24.60;99.90;;;;;;5112843;28;20237;-51
2022/07/21 09:21:54;;;;;;;7.80;6.97;;;24.80;99.90;;;;;;5112904;28;20219;-51
2022/07/21 09:24:28;;;;;;;6.93;6.18;;;25.20;99.90;;;;;;5112299;28;20269;-52
2022/07/21 09:27:09;;;;;;;7.45;6.80;;;25.50;99.90;;;;;;5112404;28;20291;-52
2022/07/21 09:29:41;;;;;;;6.68;6.07;;;25.90;99.90;;;;;;5113187;28;20204;-51
2022/07/21 09:32:22;;;;;;;6.97;6.03;;;26.10;99.90;;;;;;5113140;28;20249;-51
2022/07/21 09:34:52;;;;;;;7.63;6.55;;;26.10;99.90;;;;;;5111896;28;20203;-51
2022/07/21 09:37:22;;;;;;;6.63;6.05;;;26.00;99.90;;;;;;5113047;28;20208;-52
2022/07/21 09:39:52;;;;;;;7.00;6.40;;;26.10;99.90;;;;;;5112842;28;20208;-52
2022/07/21 09:42:24;;;;;;;7.30;6.60;;;26.30;99.90;;;;;;5112712;28;20215;-51
2022/07/21 09:44:55;;;;;;;6.88;6.07;;;26.60;99.90;;;;;;5113472;28;20212;-51
2022/07/21 09:47:26;;;;;;;7.20;6.50;;;26.70;99.90;;;;;;5112450;28;20238;-51
2022/07/21 09:49:55;;;;;;;8.00;7.20;;;26.60;99.90;;;;;;5112134;28;20733;-51
2022/07/21 09:52:45;;;;;;;7.07;6.38;;;26.00;99.90;;;;;;5110399;28;20294;-51
2022/07/21 09:55:14;;;;;;;7.80;6.63;;;25.60;99.90;;;;;;5110790;28;20261;-51
2022/07/21 09:57:43;;;;;;;6.45;5.85;;;25.40;99.90;;;;;;5112343;28;20199;-51
2022/07/21 10:00:15;;;;;;;6.38;5.70;;;25.30;99.90;;;;;;5101780;27;20398;-51
2022/07/21 10:02:47;;;;;;;7.68;6.90;;;25.10;99.90;;;;;;5107587;28;20229;-51
2022/07/21 10:05:18;;;;;;;7.97;6.30;;;24.80;99.90;;;;;;5112945;28;20238;-51
2022/07/21 10:07:48;;;;;;;10.65;6.90;;;24.50;99.90;;;;;;5104361;28;20217;-51
2022/07/21 10:10:18;;;;;;;10.00;7.85;;;24.40;99.90;;;;;;5112375;28;20249;-51
2022/07/21 10:12:49;;;;;;;12.38;8.15;;;24.30;99.90;;;;;;5111857;28;20298;-51
2022/07/21 10:15:19;;;;;;;10.65;7.72;;;24.40;99.90;;;;;;5111726;28;20765;-52
2022/07/21 10:17:52;;;;;;;8.27;6.75;;;24.40;99.90;;;;;;5112234;28;20269;-51
2022/07/21 10:20:27;;;;;;;8.80;7.43;;;24.30;99.90;;;;;;5106226;27;20684;-50
2022/07/21 10:23:03;;;;;;;8.57;7.20;;;24.20;99.90;;;;;;5092664;27;20227;-51
2022/07/21 10:25:32;;;;;;;7.43;6.45;;;24.20;99.90;;;;;;5095053;27;20605;-51
2022/07/21 10:28:18;;;;;;;8.57;6.55;;;24.20;99.90;;;;;;5098890;28;20207;-52
2022/07/21 10:30:49;;;;;;;7.55;6.90;;;24.20;99.90;;;;;;5108562;28;20256;-52
2022/07/21 10:33:20;;;;;;;8.95;7.63;;;24.10;99.90;;;;;;5110475;28;20195;-52
2022/07/21 10:35:50;;;;;;;7.72;7.03;;;24.10;99.90;;;;;;5110747;28;20226;-51
2022/07/21 10:38:30;;;;;;;8.90;8.10;;;24.20;99.90;;;;;;5109998;28;20272;-51
2022/07/21 10:40:59;;;;;;;8.65;7.72;;;24.30;99.90;;;;;;5110302;28;20280;-51
2022/07/21 10:43:40;;;;;;;9.20;7.03;;;24.40;99.90;;;;;;5110021;28;20227;-51
2022/07/21 10:46:34;;;;;;;7.82;6.72;;;24.40;99.90;;;;;;5109727;28;20230;-51
2022/07/21 10:49:06;;;;;;;8.75;7.22;;;24.60;99.90;;;;;;5109864;28;20264;-51
2022/07/21 10:51:38;;;;;;;7.68;6.70;;;24.80;99.90;;;;;;5110409;28;20920;-51
2022/07/21 10:54:24;;;;;;;6.78;5.90;;;24.90;99.90;;;;;;5111116;28;20200;-51
2022/07/21 10:57:28;;;;;;;6.80;5.75;;;25.00;99.90;;;;;;5104841;28;20223;-50
2022/07/21 11:00:19;;;;;;;6.40;5.47;;;25.00;99.90;;;;;;5108435;28;20203;-51
2022/07/21 11:02:53;;;;;;;6.85;6.22;;;24.90;99.90;;;;;;5108884;28;20224;-51
2022/07/21 11:05:24;;;;;;;6.45;5.85;;;24.90;99.90;;;;;;5109694;28;20231;-51
2022/07/21 11:08:16;;;;;;;6.60;5.80;;;25.00;99.90;;;;;;5109887;28;20210;-52
2022/07/21 11:10:48;;;;;;;6.43;5.90;;;25.00;99.90;;;;;;5109729;28;20289;-52
2022/07/21 11:13:18;;;;;;;6.93;6.07;;;25.00;99.90;;;;;;5108861;28;20200;-51
2022/07/21 11:15:59;;;;;;;7.93;6.43;;;25.00;99.90;;;;;;5109394;28;20226;-50
2022/07/21 11:18:31;;;;;;;8.02;7.32;;;24.90;99.90;;;;;;5108076;28;20287;-51
2022/07/21 11:21:10;;;;;;;8.77;7.85;;;24.90;99.90;;;;;;5109917;28;20211;-51
2022/07/21 11:23:41;;;;;;;7.82;7.03;;;24.90;99.90;;;;;;5108629;28;20227;-51
2022/07/21 11:26:10;;;;;;;7.43;6.72;;;25.00;99.90;;;;;;5107111;28;20227;-51
2022/07/21 11:28:39;;;;;;;8.98;8.07;;;25.10;99.90;;;;;;5103871;28;20212;-51
2022/07/21 11:31:13;;;;;;;8.35;7.30;;;25.10;99.90;;;;;;5110168;28;20207;-51
2022/07/21 11:33:47;;;;;;;7.55;6.85;;;25.00;99.90;;;;;;5099921;28;20722;-51
2022/07/21 11:36:29;;;;;;;8.50;7.18;;;25.10;99.90;;;;;;5102573;28;20709;-50
2022/07/21 11:38:59;;;;;;;7.68;7.00;;;25.00;99.90;;;;;;5109048;28;20215;-51
2022/07/21 11:41:28;;;;;;;8.10;7.30;;;24.90;99.90;;;;;;5110124;28;20207;-52
2022/07/21 11:43:56;;;;;;;8.70;7.80;;;25.00;99.90;;;;;;5097031;27;20667;-51
2022/07/21 11:46:24;;;;;;;7.63;7.03;;;24.90;99.90;;;;;;5090736;28;20250;-51
2022/07/21 11:49:07;;;;;;;8.18;7.38;;;24.90;99.90;;;;;;5091272;28;20586;-51
2022/07/21 11:51:35;;;;;;;7.95;6.53;;;24.80;99.90;;;;;;5102245;28;20203;-52
2022/07/21 11:54:03;;;;;;;10.43;6.78;;;24.50;99.90;;;;;;5104216;28;20208;-52
2022/07/21 11:56:38;;;;;;;7.03;6.30;;;24.50;99.90;;;;;;5093985;28;20224;-51
2022/07/21 11:59:11;;;;;;;8.38;6.80;;;24.30;99.90;;;;;;5099011;28;20543;-50
2022/07/21 12:01:50;;;;;;;6.25;5.65;;;24.40;99.90;;;;;;5093720;28;20253;-51
2022/07/21 12:04:32;;;;;;;6.32;5.38;;;24.50;99.90;;;;;;5096112;28;20230;-51
2022/07/21 12:07:02;;;;;;;5.32;4.20;;;24.60;99.90;;;;;;5092956;28;20228;-51
2022/07/21 12:09:30;;;;;;;5.40;4.43;;;24.60;99.90;;;;;;5095962;28;20641;-52
2022/07/21 12:11:58;;;;;;;5.15;4.68;;;24.80;99.90;;;;;;5105440;28;20216;-51
2022/07/21 12:14:49;;;;;;;6.22;4.93;;;24.90;99.90;;;;;;5106094;28;20249;-52
2022/07/21 12:17:31;;;;;;;7.93;5.32;;;25.00;99.90;;;;;;5108216;28;20199;-51
2022/07/21 12:20:01;;;;;;;6.38;4.97;;;25.00;99.90;;;;;;5107501;28;20215;-51
2022/07/21 12:22:36;;;;;;;5.55;5.03;;;25.00;99.90;;;;;;5106429;28;20211;-50
2022/07/21 12:25:07;;;;;;;6.15;5.30;;;25.00;99.90;;;;;;5100372;28;20224;-51
2022/07/21 12:27:37;;;;;;;6.35;5.28;;;24.90;99.90;;;;;;5102218;28;20239;-51
2022/07/21 12:30:07;;;;;;;6.43;5.43;;;25.10;99.90;;;;;;5108237;28;20219;-52
2022/07/21 12:32:41;;;;;;;5.95;5.40;;;25.20;99.90;;;;;;5094919;28;20197;-50
2022/07/21 12:35:24;;;;;;;5.53;4.93;;;25.30;99.90;;;;;;5092409;28;20920;-51
2022/07/21 12:38:11;;;;;;;6.30;5.55;;;25.40;99.90;;;;;;5100099;28;20207;-52
2022/07/21 12:40:41;;;;;;;7.90;5.07;;;25.50;99.90;;;;;;5109226;28;20204;-52
2022/07/21 12:43:29;;;;;;;6.32;5.10;;;25.40;99.90;;;;;;5098315;28;20222;-52
2022/07/21 12:45:59;;;;;;;6.72;5.40;;;25.50;99.90;;;;;;5105050;28;20272;-51
2022/07/21 12:48:30;;;;;;;5.50;5.00;;;25.60;99.90;;;;;;5101402;28;20204;-51
2022/07/21 12:51:05;;;;;;;6.50;5.82;;;25.70;99.90;;;;;;5103917;28;20210;-51
2022/07/21 12:53:34;;;;;;;6.28;5.55;;;25.70;99.90;;;;;;5108668;28;20195;-52
2022/07/21 12:56:03;;;;;;;6.30;5.00;;;25.70;99.90;;;;;;5102931;28;20398;-49
2022/07/21 12:58:31;;;;;;;5.10;4.70;;;25.70;99.90;;;;;;5088381;28;20207;-51
2022/07/21 13:00:59;;;;;;;6.25;5.20;;;25.60;99.90;;;;;;5107770;28;20211;-51